createdAt,value
2023-03-30T00:02:21.390Z,11.76
2023-03-30T00:05:46.669Z,11.76
2023-03-30T00:09:11.977Z,11.77
2023-03-30T00:12:37.255Z,11.76
2023-03-30T00:16:02.479Z,11.75
2023-03-30T00:19:27.685Z,11.74
2023-03-30T00:22:52.932Z,11.76
2023-03-30T00:26:18.174Z,11.78
2023-03-30T00:29:43.454Z,11.83
2023-03-30T00:33:08.701Z,11.82
2023-03-30T00:36:33.915Z,11.8
2023-03-30T00:39:59.140Z,11.8
2023-03-30T00:43:24.377Z,11.78
2023-03-30T00:46:49.649Z,11.78
2023-03-30T00:50:15.786Z,11.76
2023-03-30T00:53:41.021Z,11.77
2023-03-30T00:57:06.294Z,11.77
2023-03-30T01:00:31.521Z,11.78
2023-03-30T01:03:56.897Z,11.78
2023-03-30T01:07:22.084Z,11.76
2023-03-30T01:10:47.328Z,11.74
2023-03-30T01:14:12.597Z,11.74
2023-03-30T01:17:37.890Z,11.75
2023-03-30T01:21:03.253Z,11.76
2023-03-30T01:24:28.343Z,11.77
2023-03-30T01:27:53.557Z,11.8
2023-03-30T01:31:18.785Z,11.82
2023-03-30T01:34:44.047Z,11.84
2023-03-30T01:38:09.307Z,11.85
2023-03-30T01:41:34.512Z,11.88
2023-03-30T01:44:59.788Z,11.88
2023-03-30T01:48:25.043Z,11.91
2023-03-30T01:51:50.305Z,11.94
2023-03-30T01:55:15.604Z,11.96
2023-03-30T01:58:40.855Z,11.99
2023-03-30T02:02:06.162Z,12.03
2023-03-30T02:05:31.383Z,12.05
2023-03-30T02:08:56.652Z,12.08
2023-03-30T02:12:21.938Z,12.11
2023-03-30T02:15:47.145Z,12.13
2023-03-30T02:19:12.438Z,12.13
2023-03-30T02:22:37.705Z,12.14
2023-03-30T02:26:02.948Z,12.15
2023-03-30T02:29:28.206Z,12.16
2023-03-30T02:32:53.476Z,12.16
2023-03-30T02:36:18.687Z,12.15
2023-03-30T02:39:43.911Z,12.18
2023-03-30T02:43:09.183Z,12.15
2023-03-30T02:46:34.444Z,12.14
2023-03-30T02:49:59.694Z,12.17
2023-03-30T02:53:24.946Z,12.17
2023-03-30T02:56:50.207Z,12.18
2023-03-30T03:00:15.430Z,12.18
2023-03-30T03:03:40.806Z,12.17
2023-03-30T03:07:05.943Z,12.19
2023-03-30T03:10:31.197Z,12.19
2023-03-30T03:13:56.439Z,12.22
2023-03-30T03:17:21.757Z,12.24
2023-03-30T03:20:46.965Z,12.25
2023-03-30T03:24:12.142Z,12.23
2023-03-30T03:27:37.354Z,12.19
2023-03-30T03:31:02.872Z,12.18
2023-03-30T03:34:27.790Z,12.14
2023-03-30T03:37:53.035Z,12.13
2023-03-30T03:41:18.197Z,12.1
2023-03-30T03:44:43.396Z,12.11
2023-03-30T03:48:08.672Z,12.13
2023-03-30T03:51:33.846Z,12.17
2023-03-30T03:54:59.087Z,12.19
2023-03-30T03:58:24.244Z,12.19
2023-03-30T04:01:49.450Z,12.21
2023-03-30T04:05:14.721Z,12.23
2023-03-30T04:08:39.912Z,12.25
2023-03-30T04:12:05.138Z,12.29
2023-03-30T04:15:30.277Z,12.32
2023-03-30T04:18:55.476Z,12.34
2023-03-30T04:22:20.690Z,12.39
2023-03-30T04:25:45.932Z,12.43
2023-03-30T04:29:11.129Z,12.48
2023-03-30T04:32:36.330Z,12.5
2023-03-30T04:36:01.486Z,12.47
2023-03-30T04:39:26.657Z,12.48
2023-03-30T04:42:51.838Z,12.47
2023-03-30T04:46:17.078Z,12.47
2023-03-30T04:49:42.176Z,12.46
2023-03-30T04:53:07.345Z,12.46
2023-03-30T04:56:32.602Z,12.45
2023-03-30T04:59:57.849Z,12.45
2023-03-30T05:03:23.618Z,12.43
2023-03-30T05:06:48.263Z,12.4
2023-03-30T05:10:13.446Z,12.4
2023-03-30T05:13:38.656Z,12.39
2023-03-30T05:17:03.909Z,12.39
2023-03-30T05:20:29.077Z,12.39
2023-03-30T05:23:54.265Z,12.39
2023-03-30T05:27:19.470Z,12.4
2023-03-30T05:30:44.666Z,12.43
2023-03-30T05:34:09.873Z,12.46
2023-03-30T05:37:35.148Z,12.47
2023-03-30T05:41:00.336Z,12.49
2023-03-30T05:44:25.606Z,12.53
2023-03-30T05:47:50.875Z,12.58
2023-03-30T05:51:16.212Z,12.64
2023-03-30T05:54:41.713Z,12.72
2023-03-30T05:58:06.954Z,12.76
2023-03-30T06:01:32.274Z,12.84
2023-03-30T06:04:57.660Z,12.87
2023-03-30T06:08:23.001Z,12.84
2023-03-30T06:11:48.191Z,12.81
2023-03-30T06:15:13.416Z,12.82
2023-03-30T06:18:38.788Z,12.83
2023-03-30T06:22:04.898Z,12.82
2023-03-30T06:25:30.168Z,12.83
2023-03-30T06:28:55.472Z,12.86
2023-03-30T06:32:20.774Z,12.89
2023-03-30T06:35:46.071Z,12.96
2023-03-30T06:39:11.396Z,13.02
2023-03-30T06:42:36.717Z,13.05
2023-03-30T06:46:02.117Z,13.1
2023-03-30T06:49:27.302Z,13.13
2023-03-30T06:52:52.590Z,13.15
2023-03-30T06:56:17.891Z,13.2
2023-03-30T06:59:43.181Z,13.23
2023-03-30T07:03:08.588Z,13.26
2023-03-30T07:06:33.824Z,13.26
2023-03-30T07:09:59.197Z,13.28
2023-03-30T07:13:24.942Z,13.31
2023-03-30T07:16:50.302Z,13.32
2023-03-30T07:20:15.808Z,13.33
2023-03-30T07:23:41.905Z,13.32
2023-03-30T07:27:07.569Z,13.25
2023-03-30T07:30:33.346Z,13.16
2023-03-30T07:33:58.865Z,13.08
2023-03-30T07:37:24.597Z,13.03
2023-03-30T07:40:50.342Z,13.02
2023-03-30T07:44:16.157Z,12.95
2023-03-30T07:47:42.052Z,12.89
2023-03-30T07:51:07.873Z,12.84
2023-03-30T07:54:33.698Z,12.8
2023-03-30T07:57:59.416Z,12.74
2023-03-30T08:01:25.143Z,12.68
2023-03-30T08:04:50.934Z,12.64
2023-03-30T08:08:16.633Z,12.56
2023-03-30T08:11:42.443Z,12.48
2023-03-30T08:15:08.080Z,12.4
2023-03-30T08:18:33.727Z,12.37
2023-03-30T08:21:59.375Z,12.31
2023-03-30T08:25:24.968Z,12.29
2023-03-30T08:28:50.355Z,12.27
2023-03-30T08:32:15.680Z,12.25
2023-03-30T08:35:41.173Z,12.23
2023-03-30T08:39:06.588Z,12.21
2023-03-30T08:42:32.062Z,12.17
2023-03-30T08:45:57.507Z,12.14
2023-03-30T08:49:22.726Z,12.09
2023-03-30T08:52:47.956Z,12.05
2023-03-30T08:56:13.200Z,12.06
2023-03-30T08:59:38.446Z,12.04
2023-03-30T09:03:03.796Z,12.06
2023-03-30T09:06:28.978Z,12.1
2023-03-30T09:09:54.213Z,12.13
2023-03-30T09:13:19.421Z,12.13
2023-03-30T09:16:44.667Z,12.13
2023-03-30T09:20:09.891Z,12.14
2023-03-30T09:23:35.101Z,12.19
2023-03-30T09:27:00.308Z,12.25
2023-03-30T09:30:25.499Z,12.28
2023-03-30T09:33:50.747Z,12.37
2023-03-30T09:37:16.024Z,12.44
2023-03-30T09:40:41.267Z,12.52
2023-03-30T09:44:06.555Z,12.6
2023-03-30T09:47:31.863Z,12.7
2023-03-30T09:50:57.145Z,12.78
2023-03-30T09:54:22.417Z,12.82
2023-03-30T09:57:47.605Z,12.88
2023-03-30T10:01:12.979Z,12.95
2023-03-30T10:04:38.214Z,13.07
2023-03-30T10:08:03.424Z,13.15
2023-03-30T10:11:28.675Z,13.29
2023-03-30T10:14:53.889Z,13.46
2023-03-30T10:18:19.127Z,13.56
2023-03-30T10:21:44.377Z,13.64
2023-03-30T10:25:10.083Z,13.87
2023-03-30T10:28:34.904Z,14.07
2023-03-30T10:32:00.222Z,14.19
2023-03-30T10:35:25.353Z,14.36
2023-03-30T10:38:51.132Z,14.5
2023-03-30T10:42:16.377Z,14.62
2023-03-30T10:45:41.618Z,14.66
2023-03-30T10:49:06.828Z,14.71
2023-03-30T10:52:32.030Z,14.78
2023-03-30T10:55:57.310Z,14.73
2023-03-30T10:59:22.532Z,14.76
2023-03-30T11:02:47.863Z,14.79
2023-03-30T11:06:13.036Z,14.83
2023-03-30T11:09:38.304Z,14.81
2023-03-30T11:13:03.609Z,14.71
2023-03-30T11:16:28.927Z,14.62
2023-03-30T11:19:54.245Z,14.56
2023-03-30T11:23:19.504Z,14.54
2023-03-30T11:26:44.844Z,14.5
2023-03-30T11:30:10.138Z,14.49
2023-03-30T11:33:35.489Z,14.52
2023-03-30T11:37:00.826Z,14.56
2023-03-30T11:40:27.001Z,14.66
2023-03-30T11:43:51.408Z,14.76
2023-03-30T11:47:16.716Z,14.93
2023-03-30T11:50:43.403Z,15.12
2023-03-30T11:54:07.412Z,15.24
2023-03-30T11:57:32.685Z,15.3
2023-03-30T12:00:58.011Z,15.35
2023-03-30T12:04:23.377Z,15.42
2023-03-30T12:07:48.687Z,15.48
2023-03-30T12:11:14.109Z,15.56
2023-03-30T12:14:39.318Z,15.63
2023-03-30T12:18:04.758Z,15.68
2023-03-30T12:21:30.063Z,15.7
2023-03-30T12:24:55.346Z,15.7
2023-03-30T12:28:20.622Z,15.68
2023-03-30T12:31:45.912Z,15.72
2023-03-30T12:35:11.178Z,15.65
2023-03-30T12:38:36.475Z,15.56
2023-03-30T12:42:01.848Z,15.5
2023-03-30T12:45:27.196Z,15.57
2023-03-30T12:48:52.492Z,15.66
2023-03-30T12:52:17.863Z,15.69
2023-03-30T12:55:43.132Z,15.72
2023-03-30T12:59:08.482Z,15.75
2023-03-30T13:02:33.890Z,15.77
2023-03-30T13:05:59.157Z,15.78
2023-03-30T13:09:24.520Z,15.78
2023-03-30T13:12:49.878Z,15.82
2023-03-30T13:16:15.237Z,15.8
2023-03-30T13:19:40.634Z,15.79
2023-03-30T13:23:05.864Z,15.82
2023-03-30T13:26:34.809Z,15.9
2023-03-30T13:29:56.809Z,16.01
2023-03-30T13:33:22.183Z,16.110001
2023-03-30T13:36:47.579Z,16.35
2023-03-30T13:40:12.937Z,16.549999
2023-03-30T13:43:38.476Z,16.700001
2023-03-30T13:47:04.055Z,16.67
2023-03-30T13:50:29.373Z,16.76
2023-03-30T13:53:54.756Z,16.73
2023-03-30T13:57:20.193Z,16.65
2023-03-30T14:00:47.382Z,16.5
2023-03-30T14:04:11.039Z,16.440001
2023-03-30T14:07:36.420Z,16.309999
2023-03-30T14:11:01.944Z,16.15
2023-03-30T14:14:27.205Z,16.08
2023-03-30T14:17:52.625Z,16.139999
2023-03-30T14:21:17.990Z,16.15
2023-03-30T14:24:43.394Z,16.120001
2023-03-30T14:28:08.793Z,16.120001
2023-03-30T14:31:34.183Z,16.1
2023-03-30T14:34:59.445Z,16.040001
2023-03-30T14:38:24.900Z,15.96
2023-03-30T14:41:50.271Z,15.88
2023-03-30T14:45:15.630Z,15.76
2023-03-30T14:48:40.973Z,15.58
2023-03-30T14:52:06.313Z,14.9
2023-03-30T14:55:31.627Z,13.88
2023-03-30T14:58:56.990Z,13.03
2023-03-30T15:02:22.356Z,12.55
2023-03-30T15:05:47.628Z,12.25
2023-03-30T15:39:58.406Z,9.6
2023-03-30T15:43:24.430Z,10.66
2023-03-30T15:46:49.707Z,10.99
2023-03-30T15:50:15.043Z,11.28
2023-03-30T15:53:40.296Z,11.5
2023-03-30T15:57:05.652Z,11.68
2023-03-30T16:00:30.803Z,11.83
2023-03-30T16:03:56.084Z,11.94
2023-03-30T16:07:21.370Z,12.03
2023-03-30T16:10:46.596Z,12.08
2023-03-30T16:14:11.891Z,12.13
2023-03-30T16:17:37.106Z,12.22
2023-03-30T16:21:02.443Z,12.3
2023-03-30T16:24:27.712Z,12.36
2023-03-30T16:27:53.006Z,12.43
2023-03-30T16:31:18.399Z,12.47
2023-03-30T16:34:43.611Z,12.5
2023-03-30T16:38:08.909Z,12.59
2023-03-30T16:41:34.188Z,12.72
2023-03-30T16:44:59.568Z,12.8
2023-03-30T16:48:25.037Z,12.82
2023-03-30T16:51:50.398Z,12.77
2023-03-30T16:55:15.861Z,12.72
2023-03-30T16:58:41.165Z,12.7
2023-03-30T17:02:06.772Z,12.71
2023-03-30T17:05:32.855Z,12.65
2023-03-30T17:08:58.810Z,12.59
2023-03-30T17:12:24.874Z,12.52
2023-03-30T17:15:50.834Z,12.43
2023-03-30T17:19:16.874Z,12.34
2023-03-30T17:22:42.817Z,12.26
2023-03-30T17:26:08.808Z,12.22
2023-03-30T17:29:35.648Z,12.15
2023-03-30T17:33:01.720Z,12.09
2023-03-30T17:36:27.589Z,12.03
2023-03-30T17:39:53.209Z,11.99
2023-03-30T17:43:18.895Z,11.97
2023-03-30T17:46:44.770Z,11.89
2023-03-30T17:50:10.743Z,11.84
2023-03-30T17:53:36.595Z,11.83
2023-03-30T17:57:01.999Z,11.74
2023-03-30T18:00:27.254Z,11.67
2023-03-30T18:03:52.723Z,11.62
2023-03-30T18:07:18.110Z,11.56
2023-03-30T18:10:43.903Z,11.54
2023-03-30T18:14:10.080Z,11.55
2023-03-30T18:17:35.839Z,11.55
2023-03-30T18:21:01.662Z,11.58
2023-03-30T18:24:27.244Z,11.63
2023-03-30T18:27:52.832Z,11.65
2023-03-30T18:31:18.468Z,11.58
2023-03-30T18:34:44.024Z,11.59
2023-03-30T18:38:10.260Z,11.62
2023-03-30T18:41:36.195Z,11.65
2023-03-30T18:45:02.236Z,11.65
2023-03-30T18:48:28.073Z,11.65
2023-03-30T18:51:53.971Z,11.65
2023-03-30T18:55:19.773Z,11.64
2023-03-30T18:58:45.711Z,11.67
2023-03-30T19:02:11.719Z,11.68
2023-03-30T19:05:37.621Z,11.68
2023-03-30T19:09:03.563Z,11.63
2023-03-30T19:12:29.408Z,11.59
2023-03-30T19:15:55.267Z,11.57
2023-03-30T19:19:21.159Z,11.51
2023-03-30T19:22:47.006Z,11.49
2023-03-30T19:26:12.873Z,11.47
2023-03-30T19:29:38.719Z,11.48
2023-03-30T19:33:04.619Z,11.51
2023-03-30T19:36:30.465Z,11.55
2023-03-30T19:39:56.387Z,11.59
2023-03-30T19:43:22.132Z,11.61
2023-03-30T19:46:47.828Z,11.55
2023-03-30T19:50:13.374Z,11.51
2023-03-30T19:53:38.920Z,11.5
2023-03-30T19:57:04.386Z,11.49
2023-03-30T20:00:29.682Z,11.47
2023-03-30T20:03:55.088Z,11.45
2023-03-30T20:07:20.435Z,11.43
2023-03-30T20:10:45.773Z,11.43
2023-03-30T20:14:11.138Z,11.46
2023-03-30T20:17:36.646Z,11.48
2023-03-30T20:21:01.915Z,11.43
2023-03-30T20:24:27.179Z,11.44
2023-03-30T20:27:52.504Z,11.44
2023-03-30T20:31:17.903Z,11.48
2023-03-30T20:34:43.253Z,11.5
2023-03-30T20:38:08.693Z,11.5
2023-03-30T20:41:33.981Z,11.44
2023-03-30T20:44:59.666Z,11.41
2023-03-30T20:48:24.729Z,11.34
2023-03-30T20:51:50.115Z,11.35
2023-03-30T20:55:15.440Z,11.34
2023-03-30T20:58:40.772Z,11.3
2023-03-30T21:02:06.174Z,11.28
2023-03-30T21:05:31.551Z,11.3
2023-03-30T21:08:56.940Z,11.28
2023-03-30T21:12:22.247Z,11.24
2023-03-30T21:15:47.590Z,11.25
2023-03-30T21:19:12.944Z,11.28
2023-03-30T21:22:38.314Z,11.34
2023-03-30T21:26:03.836Z,11.32
2023-03-30T21:29:29.082Z,11.24
2023-03-30T21:32:54.470Z,11.24
2023-03-30T21:36:19.864Z,11.28
2023-03-30T21:39:45.244Z,11.28
2023-03-30T21:43:10.609Z,11.26
2023-03-30T21:46:36.011Z,11.26
2023-03-30T21:50:01.367Z,11.3
2023-03-30T21:53:26.703Z,11.29
2023-03-30T21:56:52.162Z,11.29
2023-03-30T22:00:17.467Z,11.28
2023-03-30T22:03:42.958Z,11.28
2023-03-30T22:07:08.183Z,11.24
2023-03-30T22:10:33.512Z,11.18
2023-03-30T22:13:58.882Z,11.17
2023-03-30T22:17:24.240Z,11.15
2023-03-30T22:20:49.532Z,11.12
2023-03-30T22:24:14.899Z,11.14
2023-03-30T22:27:40.240Z,11.13
2023-03-30T22:31:05.632Z,11.15
2023-03-30T22:34:30.888Z,11.2
2023-03-30T22:37:56.221Z,11.26
2023-03-30T22:41:21.560Z,11.29
2023-03-30T22:44:46.892Z,11.34
2023-03-30T22:48:12.263Z,11.35
2023-03-30T22:51:37.575Z,11.35
2023-03-30T22:55:02.927Z,11.37
2023-03-30T22:58:28.270Z,11.36
2023-03-30T23:01:53.608Z,11.38
2023-03-30T23:05:18.992Z,11.38
2023-03-30T23:08:44.329Z,11.36
2023-03-30T23:12:09.654Z,11.33
2023-03-30T23:15:34.963Z,11.31
2023-03-30T23:19:00.292Z,11.28
2023-03-30T23:22:25.673Z,11.27
2023-03-30T23:25:51.000Z,11.29
2023-03-30T23:29:16.359Z,11.29
2023-03-30T23:32:41.794Z,11.28
2023-03-30T23:36:07.282Z,11.26
2023-03-30T23:39:32.483Z,11.23
2023-03-30T23:42:57.856Z,11.21
2023-03-30T23:46:23.217Z,11.19
2023-03-30T23:49:48.553Z,11.18
2023-03-30T23:53:13.920Z,11.19
2023-03-30T23:56:39.293Z,11.2
